createdAt,value
2023-06-22T00:01:36.273Z,23.14
2023-06-22T00:04:04.770Z,23.16
2023-06-22T00:06:33.379Z,23.16
2023-06-22T00:09:01.431Z,23.17
2023-06-22T00:11:30.185Z,23.19
2023-06-22T00:13:58.227Z,23.19
2023-06-22T00:16:26.752Z,23.22
2023-06-22T00:18:54.809Z,23.23
2023-06-22T00:21:22.855Z,23.23
2023-06-22T00:23:50.918Z,23.25
2023-06-22T00:26:19.352Z,23.28
2023-06-22T00:28:47.676Z,23.30
2023-06-22T00:31:15.903Z,23.33
2023-06-22T00:33:43.951Z,23.34
2023-06-22T00:36:14.585Z,23.32
2023-06-22T00:38:42.957Z,23.30
2023-06-22T00:41:10.981Z,23.29
2023-06-22T00:43:39.005Z,23.24
2023-06-22T00:46:07.131Z,23.20
2023-06-22T00:48:37.835Z,23.19
2023-06-22T00:51:06.390Z,23.15
2023-06-22T00:53:36.383Z,23.12
2023-06-22T00:56:06.867Z,23.11
2023-06-22T00:58:38.242Z,23.10
2023-06-22T01:01:06.561Z,23.09
2023-06-22T01:03:35.066Z,23.05
2023-06-22T01:06:12.565Z,23.01
2023-06-22T01:08:50.071Z,22.99
2023-06-22T01:11:29.553Z,22.95
2023-06-22T01:14:36.472Z,22.88
2023-06-22T01:17:06.625Z,22.79
2023-06-22T01:19:42.954Z,22.70
2023-06-22T01:22:16.650Z,22.62
2023-06-22T01:25:06.840Z,22.55
2023-06-22T01:27:35.802Z,22.45
2023-06-22T01:30:06.578Z,22.38
2023-06-22T01:32:39.910Z,22.31
2023-06-22T01:35:09.652Z,22.22
2023-06-22T01:37:39.363Z,22.11
2023-06-22T01:40:09.533Z,22.03
2023-06-22T01:42:38.715Z,21.99
2023-06-22T01:45:10.996Z,21.93
2023-06-22T01:47:40.503Z,21.87
2023-06-22T01:50:09.611Z,21.83
2023-06-22T01:52:37.599Z,21.80
2023-06-22T01:55:07.066Z,21.75
2023-06-22T01:57:35.277Z,21.69
2023-06-22T02:00:11.698Z,21.61
2023-06-22T02:03:11.656Z,21.56
2023-06-22T02:05:51.081Z,21.52
2023-06-22T02:08:25.072Z,21.47
2023-06-22T02:10:54.183Z,21.41
2023-06-22T02:13:25.463Z,21.37
2023-06-22T02:15:54.128Z,21.34
2023-06-22T02:18:22.243Z,21.33
2023-06-22T02:20:50.442Z,21.28
2023-06-22T02:23:18.632Z,21.25
2023-06-22T02:25:47.053Z,21.23
2023-06-22T02:28:15.263Z,21.22
2023-06-22T02:30:43.350Z,21.19
2023-06-22T02:33:11.547Z,21.18
2023-06-22T02:35:40.964Z,21.18
2023-06-22T02:38:09.356Z,21.20
2023-06-22T02:40:37.523Z,21.21
2023-06-22T02:43:05.607Z,21.19
2023-06-22T02:45:33.717Z,21.16
2023-06-22T02:48:01.791Z,21.16
2023-06-22T02:50:30.582Z,21.15
2023-06-22T02:52:59.875Z,21.15
2023-06-22T02:55:30.058Z,21.15
2023-06-22T02:58:00.789Z,21.15
2023-06-22T03:00:31.988Z,21.14
2023-06-22T03:03:00.831Z,21.13
2023-06-22T03:05:29.211Z,21.12
2023-06-22T03:07:57.820Z,21.10
2023-06-22T03:10:26.044Z,21.08
2023-06-22T03:12:54.107Z,21.06
2023-06-22T03:15:23.409Z,21.05
2023-06-22T03:17:52.888Z,21.06
2023-06-22T03:20:21.251Z,21.06
2023-06-22T03:22:50.024Z,21.03
2023-06-22T03:25:18.131Z,21.00
2023-06-22T03:27:49.250Z,21.05
2023-06-22T03:30:17.367Z,21.15
2023-06-22T03:32:48.168Z,21.25
2023-06-22T03:35:16.627Z,21.34
2023-06-22T03:37:44.789Z,21.42
2023-06-22T03:40:13.262Z,21.51
2023-06-22T03:42:41.941Z,21.58
2023-06-22T03:45:11.482Z,21.64
2023-06-22T03:47:39.796Z,21.71
2023-06-22T03:50:08.210Z,21.80
2023-06-22T03:52:36.686Z,21.87
2023-06-22T03:55:05.315Z,21.92
2023-06-22T03:57:33.493Z,22.00
2023-06-22T04:00:02.302Z,22.08
2023-06-22T04:02:40.621Z,22.15
2023-06-22T04:05:10.276Z,22.25
2023-06-22T04:07:38.646Z,22.33
2023-06-22T04:10:07.103Z,22.39
2023-06-22T04:12:35.246Z,22.48
2023-06-22T04:15:03.650Z,22.56
2023-06-22T04:17:31.873Z,22.66
2023-06-22T04:20:00.174Z,22.76
2023-06-22T04:22:28.234Z,22.85
2023-06-22T04:24:56.469Z,22.94
2023-06-22T04:27:24.905Z,23.06
2023-06-22T04:29:53.134Z,23.19
2023-06-22T04:32:21.360Z,23.30
2023-06-22T04:34:50.116Z,23.39
2023-06-22T04:37:18.216Z,23.48
2023-06-22T04:39:46.202Z,23.57
2023-06-22T04:42:14.248Z,23.65
2023-06-22T04:44:43.671Z,23.80
2023-06-22T04:47:11.715Z,23.95
2023-06-22T04:49:41.484Z,24.10
2023-06-22T04:52:11.461Z,24.24
2023-06-22T04:54:41.719Z,24.41
2023-06-22T04:57:12.698Z,24.56
2023-06-22T04:59:43.205Z,24.66
2023-06-22T05:02:11.615Z,24.74
2023-06-22T05:04:40.373Z,24.80
2023-06-22T05:07:08.781Z,24.86
2023-06-22T05:09:36.882Z,24.96
2023-06-22T05:12:07.752Z,25.05
2023-06-22T05:14:37.175Z,25.16
2023-06-22T05:17:05.496Z,25.25
2023-06-22T05:19:35.441Z,25.35
2023-06-22T05:22:03.997Z,25.45
2023-06-22T05:24:32.122Z,25.56
2023-06-22T05:27:00.208Z,25.65
2023-06-22T05:29:28.196Z,25.73
2023-06-22T05:31:56.393Z,25.81
2023-06-22T05:34:24.591Z,25.88
2023-06-22T05:36:53.227Z,25.95
2023-06-22T05:39:21.406Z,25.99
2023-06-22T05:41:49.474Z,25.99
2023-06-22T05:44:17.470Z,26.06
2023-06-22T05:46:47.280Z,26.11
2023-06-22T05:49:15.596Z,26.18
2023-06-22T05:51:43.935Z,26.22
2023-06-22T05:54:14.673Z,26.25
2023-06-22T05:56:42.776Z,26.24
2023-06-22T05:59:10.820Z,26.26
2023-06-22T06:01:39.100Z,26.32
2023-06-22T06:04:09.450Z,26.38
2023-06-22T06:06:38.817Z,26.50
2023-06-22T06:09:08.748Z,26.62
2023-06-22T06:11:39.497Z,26.68
2023-06-22T06:14:07.732Z,26.73
2023-06-22T06:16:35.806Z,26.66
2023-06-22T06:19:03.841Z,26.58
2023-06-22T06:21:31.894Z,26.57
2023-06-22T06:23:59.967Z,26.59
2023-06-22T06:26:33.731Z,26.70
2023-06-22T06:29:01.944Z,26.80
2023-06-22T06:31:30.069Z,26.87
2023-06-22T06:33:58.237Z,27.00
2023-06-22T06:36:26.277Z,27.09
2023-06-22T06:38:54.427Z,27.12
2023-06-22T06:41:22.422Z,27.17
2023-06-22T06:43:50.613Z,27.26
2023-06-22T06:46:20.397Z,27.34
2023-06-22T06:48:48.555Z,27.37
2023-06-22T06:51:16.672Z,27.40
2023-06-22T06:53:44.810Z,27.48
2023-06-22T06:56:13.394Z,27.58
2023-06-22T06:58:46.120Z,27.65
2023-06-22T07:01:14.366Z,27.66
2023-06-22T07:03:42.487Z,27.67
2023-06-22T07:06:10.758Z,27.67
2023-06-22T07:08:40.891Z,27.62
2023-06-22T07:11:09.101Z,27.60
2023-06-22T07:13:37.202Z,27.58
2023-06-22T07:16:05.576Z,27.53
2023-06-22T07:18:33.688Z,27.51
2023-06-22T07:21:02.010Z,27.54
2023-06-22T07:23:30.575Z,27.51
2023-06-22T07:25:58.674Z,27.52
2023-06-22T07:28:26.863Z,27.59
2023-06-22T07:30:55.043Z,27.62
2023-06-22T07:33:23.272Z,27.63
2023-06-22T07:35:53.390Z,27.72
2023-06-22T07:38:21.676Z,27.79
2023-06-22T07:40:49.896Z,27.83
2023-06-22T07:43:18.008Z,27.81
2023-06-22T07:45:53.509Z,27.80
2023-06-22T07:48:22.959Z,27.85
2023-06-22T07:50:51.124Z,27.88
2023-06-22T07:53:19.245Z,27.90
2023-06-22T07:55:49.813Z,27.90
2023-06-22T07:58:20.235Z,27.88
2023-06-22T08:00:50.429Z,27.90
2023-06-22T08:03:18.546Z,27.88
2023-06-22T08:05:46.936Z,27.82
2023-06-22T08:08:15.881Z,27.76
2023-06-22T08:10:44.089Z,27.71
2023-06-22T08:13:12.260Z,27.69
2023-06-22T08:15:40.420Z,27.69
2023-06-22T08:18:08.695Z,27.67
2023-06-22T08:20:36.869Z,27.66
2023-06-22T08:23:07.411Z,27.66
2023-06-22T08:25:36.199Z,27.69
2023-06-22T08:28:05.099Z,27.74
2023-06-22T08:30:33.121Z,27.83
2023-06-22T08:33:01.269Z,27.98
2023-06-22T08:35:30.494Z,28.09
2023-06-22T08:37:59.280Z,28.08
2023-06-22T08:40:28.014Z,27.98
2023-06-22T08:42:56.298Z,27.90
2023-06-22T08:45:24.398Z,27.82
2023-06-22T08:47:52.460Z,27.75
2023-06-22T08:50:20.643Z,27.70
2023-06-22T08:52:49.096Z,27.67
2023-06-22T08:55:17.192Z,27.58
2023-06-22T08:57:45.429Z,27.43
2023-06-22T09:00:18.396Z,27.32
2023-06-22T09:02:48.601Z,27.27
2023-06-22T09:05:17.460Z,27.31
2023-06-22T09:07:45.726Z,27.43
2023-06-22T09:10:13.810Z,27.58
2023-06-22T09:12:42.041Z,27.69
2023-06-22T09:15:14.072Z,27.79
2023-06-22T09:17:45.764Z,27.89
2023-06-22T09:20:14.079Z,27.99
2023-06-22T09:22:42.472Z,28.10
2023-06-22T09:25:10.745Z,28.21
2023-06-22T09:27:38.827Z,28.31
2023-06-22T09:30:07.717Z,28.41
2023-06-22T09:32:35.957Z,28.51
2023-06-22T09:35:09.933Z,28.58
2023-06-22T09:37:39.262Z,28.65
2023-06-22T09:40:13.752Z,28.71
2023-06-22T09:42:42.692Z,28.78
2023-06-22T09:45:11.093Z,28.83
2023-06-22T09:47:39.321Z,28.87
2023-06-22T09:50:07.765Z,28.88
2023-06-22T09:52:47.930Z,28.87
2023-06-22T09:55:17.508Z,28.80
2023-06-22T09:57:46.187Z,28.75
2023-06-22T10:00:16.095Z,28.77
2023-06-22T10:02:44.793Z,28.72
2023-06-22T10:05:13.380Z,28.66
2023-06-22T10:07:44.483Z,28.61
2023-06-22T10:10:13.366Z,28.60
2023-06-22T10:12:46.999Z,28.57
2023-06-22T10:15:16.006Z,28.48
2023-06-22T10:17:44.572Z,28.47
2023-06-22T10:20:13.778Z,28.45
2023-06-22T10:22:45.979Z,28.44
2023-06-22T10:25:14.381Z,28.45
2023-06-22T10:27:42.602Z,28.46
2023-06-22T10:30:13.835Z,28.46
2023-06-22T10:32:46.318Z,28.48
2023-06-22T10:35:17.044Z,28.51
2023-06-22T10:37:46.373Z,28.61
2023-06-22T10:40:16.485Z,28.70
2023-06-22T10:42:44.769Z,28.75
2023-06-22T10:45:12.830Z,28.75
2023-06-22T10:47:43.538Z,28.73
2023-06-22T10:50:12.645Z,28.65
2023-06-22T10:52:42.713Z,28.58
2023-06-22T10:55:11.275Z,28.54
2023-06-22T10:57:42.915Z,28.56
2023-06-22T11:00:12.690Z,28.62
2023-06-22T11:02:40.904Z,28.62
2023-06-22T11:05:09.233Z,28.56
2023-06-22T11:10:13.328Z,28.41
2023-06-22T11:12:41.523Z,28.36
2023-06-22T11:15:10.489Z,28.34
2023-06-22T11:17:38.629Z,28.34
2023-06-22T11:20:11.872Z,28.32
2023-06-22T11:22:41.275Z,28.29
2023-06-22T11:25:09.753Z,28.26
2023-06-22T11:27:37.808Z,28.23
2023-06-22T11:30:06.484Z,28.25
2023-06-22T11:32:35.435Z,28.33
2023-06-22T11:35:03.707Z,28.45
2023-06-22T11:37:31.672Z,28.57
2023-06-22T11:40:06.800Z,28.67
2023-06-22T11:42:35.720Z,28.73
2023-06-22T11:45:06.683Z,28.73
2023-06-22T11:47:34.841Z,28.65
2023-06-22T11:50:04.100Z,28.52
2023-06-22T11:52:32.114Z,28.40
2023-06-22T11:55:00.592Z,28.35
2023-06-22T11:57:28.712Z,28.34
2023-06-22T11:59:56.781Z,28.34
2023-06-22T12:02:24.999Z,28.40
2023-06-22T12:04:53.758Z,28.49
2023-06-22T12:07:21.899Z,28.58
2023-06-22T12:09:49.863Z,28.57
2023-06-22T12:12:17.828Z,28.52
2023-06-22T12:14:45.901Z,28.50
2023-06-22T12:17:14.038Z,28.48
2023-06-22T12:19:42.295Z,28.42
2023-06-22T12:22:10.318Z,28.36
2023-06-22T12:24:38.303Z,28.33
2023-06-22T12:27:06.307Z,28.30
2023-06-22T12:29:34.363Z,28.29
2023-06-22T12:32:02.328Z,28.32
2023-06-22T12:34:30.459Z,28.35
2023-06-22T12:36:58.566Z,28.38
2023-06-22T12:39:26.588Z,28.40
2023-06-22T12:41:54.657Z,28.43
2023-06-22T12:44:22.793Z,28.43
2023-06-22T12:46:50.898Z,28.44
2023-06-22T12:49:19.045Z,28.46
2023-06-22T12:51:47.096Z,28.48
2023-06-22T12:54:15.094Z,28.51
2023-06-22T12:56:44.957Z,28.51
2023-06-22T12:59:13.106Z,28.52
2023-06-22T13:01:41.189Z,28.52
2023-06-22T13:04:09.191Z,28.52
2023-06-22T13:06:37.343Z,28.55
2023-06-22T13:11:37.225Z,28.57
2023-06-22T13:14:06.970Z,28.56
2023-06-22T13:16:35.176Z,28.58
2023-06-22T13:19:03.608Z,28.60
2023-06-22T13:21:32.252Z,28.64
2023-06-22T13:24:00.485Z,28.65
2023-06-22T13:26:29.847Z,28.65
2023-06-22T13:28:58.233Z,28.69
2023-06-22T13:31:26.298Z,28.72
2023-06-22T13:33:54.401Z,28.76
2023-06-22T13:36:24.311Z,28.80
2023-06-22T13:38:52.359Z,28.84
2023-06-22T13:41:20.390Z,28.86
2023-06-22T13:43:48.493Z,28.86
2023-06-22T13:46:16.646Z,28.87
2023-06-22T13:48:44.610Z,28.88
2023-06-22T13:51:12.624Z,28.87
2023-06-22T13:53:40.689Z,28.88
2023-06-22T13:56:08.645Z,28.88
2023-06-22T13:58:36.644Z,28.88
2023-06-22T14:01:04.624Z,28.89
2023-06-22T14:03:32.618Z,28.90
2023-06-22T14:06:00.706Z,28.87
2023-06-22T14:10:59.645Z,28.76
2023-06-22T14:13:27.633Z,28.75
2023-06-22T14:15:55.700Z,28.69
2023-06-22T14:18:23.715Z,28.59
2023-06-22T14:20:51.850Z,28.51
2023-06-22T14:23:19.872Z,28.47
2023-06-22T14:25:48.031Z,28.45
2023-06-22T14:28:17.589Z,28.42
2023-06-22T14:30:45.871Z,28.45
2023-06-22T14:33:14.243Z,28.49
2023-06-22T14:35:42.253Z,28.51
2023-06-22T14:38:10.284Z,28.50
2023-06-22T14:40:53.316Z,28.51
2023-06-22T14:43:27.267Z,28.54
2023-06-22T14:45:55.306Z,28.57
2023-06-22T14:48:23.292Z,28.54
2023-06-22T14:50:51.321Z,28.53
2023-06-22T14:53:19.307Z,28.54
2023-06-22T14:55:47.363Z,28.52
2023-06-22T14:58:15.517Z,28.45
2023-06-22T15:00:43.582Z,28.38
2023-06-22T15:03:18.180Z,28.36
2023-06-22T15:05:46.920Z,28.36
2023-06-22T15:08:14.921Z,28.37
2023-06-22T15:10:42.985Z,28.39
2023-06-22T15:13:11.046Z,28.41
2023-06-22T15:15:39.240Z,28.42
2023-06-22T15:18:07.381Z,28.42
2023-06-22T15:20:35.428Z,28.42
2023-06-22T15:23:03.442Z,28.39
2023-06-22T15:25:31.386Z,28.39
2023-06-22T15:27:59.443Z,28.34
2023-06-22T15:30:27.656Z,28.27
2023-06-22T15:32:56.051Z,28.19
2023-06-22T15:35:24.277Z,28.12
2023-06-22T15:37:52.509Z,28.07
2023-06-22T15:40:20.623Z,28.00
2023-06-22T15:42:53.469Z,27.97
2023-06-22T15:45:22.124Z,27.96
2023-06-22T15:47:50.167Z,27.95
2023-06-22T15:50:18.332Z,27.94
2023-06-22T15:52:48.679Z,27.90
2023-06-22T15:55:19.045Z,27.85
2023-06-22T15:57:47.989Z,27.81
2023-06-22T16:00:18.532Z,27.80
2023-06-22T16:02:48.262Z,27.81
2023-06-22T16:05:17.106Z,27.83
2023-06-22T16:07:45.185Z,27.86
2023-06-22T16:10:16.136Z,27.87
2023-06-22T16:12:45.630Z,27.86
2023-06-22T16:15:13.808Z,27.86
2023-06-22T16:17:42.284Z,27.86
2023-06-22T16:20:11.454Z,27.83
2023-06-22T16:22:39.562Z,27.77
2023-06-22T16:25:07.890Z,27.74
2023-06-22T16:27:36.021Z,27.69
2023-06-22T16:30:04.491Z,27.64
2023-06-22T16:32:32.573Z,27.63
2023-06-22T16:35:00.713Z,27.66
2023-06-22T16:37:29.075Z,27.69
2023-06-22T16:39:57.993Z,27.71
2023-06-22T16:42:26.128Z,27.73
2023-06-22T16:44:54.252Z,27.75
2023-06-22T16:47:22.345Z,27.77
2023-06-22T16:49:50.713Z,27.78
2023-06-22T16:52:18.694Z,27.80
2023-06-22T16:55:00.159Z,27.81
2023-06-22T16:57:29.561Z,27.79
2023-06-22T16:59:57.628Z,27.76
2023-06-22T17:02:26.771Z,27.73
2023-06-22T17:04:56.601Z,27.73
2023-06-22T17:07:27.087Z,27.71
2023-06-22T17:09:56.684Z,27.65
2023-06-22T17:12:26.016Z,27.60
2023-06-22T17:14:55.880Z,27.59
2023-06-22T17:17:26.614Z,27.56
2023-06-22T17:19:54.944Z,27.56
2023-06-22T17:22:23.579Z,27.54
2023-06-22T17:24:52.485Z,27.51
2023-06-22T17:27:30.708Z,27.50
2023-06-22T17:30:09.893Z,27.48
2023-06-22T17:32:38.091Z,27.45
2023-06-22T17:35:15.560Z,27.42
2023-06-22T17:38:11.978Z,27.40
2023-06-22T17:40:41.036Z,27.38
2023-06-22T17:43:09.404Z,27.38
2023-06-22T17:45:46.049Z,27.38
2023-06-22T17:48:15.691Z,27.33
2023-06-22T17:50:43.838Z,27.28
2023-06-22T17:53:13.031Z,27.26
2023-06-22T17:55:41.249Z,27.25
2023-06-22T17:58:09.522Z,27.23
2023-06-22T18:00:38.176Z,27.20
2023-06-22T18:03:06.672Z,27.18
2023-06-22T18:05:36.712Z,27.14
2023-06-22T18:08:05.998Z,27.10
2023-06-22T18:10:36.906Z,27.06
2023-06-22T18:13:05.645Z,27.04
2023-06-22T18:15:36.081Z,26.99
2023-06-22T18:18:06.403Z,26.94
2023-06-22T18:20:36.299Z,26.90
2023-06-22T18:23:04.380Z,26.86
2023-06-22T18:25:34.787Z,26.84
2023-06-22T18:28:04.347Z,26.80
2023-06-22T18:30:32.858Z,26.75
2023-06-22T18:33:01.057Z,26.72
2023-06-22T18:35:29.686Z,26.69
2023-06-22T18:37:59.270Z,26.66
2023-06-22T18:40:27.615Z,26.61
2023-06-22T18:43:01.215Z,26.55
2023-06-22T18:45:30.412Z,26.49
2023-06-22T18:48:02.853Z,26.44
2023-06-22T18:50:40.547Z,26.34
2023-06-22T18:53:32.238Z,26.22
2023-06-22T18:56:15.980Z,26.09
2023-06-22T18:58:44.071Z,25.99
2023-06-22T19:01:16.969Z,25.92
2023-06-22T19:03:49.806Z,25.86
2023-06-22T19:06:56.509Z,25.81
2023-06-22T19:09:24.539Z,25.74
2023-06-22T19:12:12.596Z,25.68
2023-06-22T19:14:40.801Z,25.60
2023-06-22T19:17:08.927Z,25.49
2023-06-22T19:19:39.081Z,25.37
2023-06-22T19:22:10.214Z,25.30
2023-06-22T19:25:00.577Z,25.24
2023-06-22T19:27:30.986Z,25.15
2023-06-22T19:29:59.124Z,25.08
2023-06-22T19:32:27.228Z,25.02
2023-06-22T19:34:55.522Z,24.98
2023-06-22T19:37:24.873Z,24.96
2023-06-22T19:42:21.698Z,24.89
2023-06-22T19:44:49.765Z,24.85
2023-06-22T19:47:20.959Z,24.83
2023-06-22T19:49:49.139Z,24.78
2023-06-22T19:52:17.161Z,24.74
2023-06-22T19:54:45.160Z,24.69
2023-06-22T19:57:13.185Z,24.63
2023-06-22T19:59:41.233Z,24.57
2023-06-22T20:02:10.243Z,24.51
2023-06-22T20:04:38.701Z,24.43
2023-06-22T20:07:07.978Z,24.38
2023-06-22T20:09:38.396Z,24.34
2023-06-22T20:12:34.954Z,24.30
2023-06-22T20:15:19.482Z,24.25
2023-06-22T20:17:57.135Z,24.24
2023-06-22T20:20:26.824Z,24.21
2023-06-22T20:22:58.408Z,24.16
2023-06-22T20:25:27.333Z,24.13
2023-06-22T20:27:56.156Z,24.10
2023-06-22T20:30:30.048Z,24.07
2023-06-22T20:32:58.376Z,24.03
2023-06-22T20:35:26.381Z,24.01
2023-06-22T20:37:56.991Z,23.99
2023-06-22T20:40:28.938Z,23.97
2023-06-22T20:43:02.873Z,23.98
2023-06-22T20:45:32.826Z,24.03
2023-06-22T20:48:02.404Z,24.07
2023-06-22T20:50:33.904Z,24.07
2023-06-22T20:53:03.995Z,24.08
2023-06-22T20:55:38.391Z,24.08
2023-06-22T20:58:07.533Z,24.09
2023-06-22T21:00:36.169Z,24.10
2023-06-22T21:03:05.439Z,24.12
2023-06-22T21:05:34.157Z,24.11
2023-06-22T21:08:02.374Z,24.11
2023-06-22T21:10:30.389Z,24.13
2023-06-22T21:12:58.438Z,24.12
2023-06-22T21:15:26.451Z,24.10
2023-06-22T21:17:54.536Z,24.09
2023-06-22T21:20:22.637Z,24.05
2023-06-22T21:22:50.573Z,24.01
2023-06-22T21:25:19.115Z,23.99
2023-06-22T21:27:47.256Z,23.96
2023-06-22T21:30:16.553Z,23.93
2023-06-22T21:32:44.817Z,23.91
2023-06-22T21:35:13.981Z,23.89
2023-06-22T21:37:42.955Z,23.83
2023-06-22T21:40:11.386Z,23.80
2023-06-22T21:42:39.468Z,23.79
2023-06-22T21:45:07.837Z,23.78
2023-06-22T21:47:35.939Z,23.77
2023-06-22T21:50:04.808Z,23.75
2023-06-22T21:52:32.841Z,23.75
2023-06-22T21:55:01.992Z,23.70
2023-06-22T21:57:30.183Z,23.66
2023-06-22T21:59:58.199Z,23.64
2023-06-22T22:02:26.954Z,23.61
2023-06-22T22:04:55.193Z,23.58
2023-06-22T22:07:23.244Z,23.53
2023-06-22T22:09:51.298Z,23.51
2023-06-22T22:12:19.324Z,23.49
2023-06-22T22:14:47.457Z,23.49
2023-06-22T22:17:15.587Z,23.47
2023-06-22T22:19:43.641Z,23.47
2023-06-22T22:22:12.437Z,23.43
2023-06-22T22:24:40.470Z,23.37
2023-06-22T22:27:08.546Z,23.34
2023-06-22T22:29:36.573Z,23.31
2023-06-22T22:32:04.741Z,23.26
2023-06-22T22:34:32.752Z,23.20
2023-06-22T22:37:00.759Z,23.16
2023-06-22T22:39:37.775Z,23.14
2023-06-22T22:42:06.530Z,23.10
2023-06-22T22:44:36.024Z,23.09
2023-06-22T22:47:04.208Z,23.09
2023-06-22T22:49:32.254Z,23.06
2023-06-22T22:52:00.349Z,23.01
2023-06-22T22:54:28.455Z,22.96
2023-06-22T22:56:56.489Z,22.89
2023-06-22T22:59:24.517Z,22.86
2023-06-22T23:01:52.665Z,22.83
2023-06-22T23:04:20.695Z,22.80
2023-06-22T23:06:48.689Z,22.73
2023-06-22T23:09:16.857Z,22.65
2023-06-22T23:11:44.905Z,22.60
2023-06-22T23:14:12.902Z,22.55
2023-06-22T23:16:40.924Z,22.50
2023-06-22T23:19:08.995Z,22.46
2023-06-22T23:21:37.008Z,22.41
2023-06-22T23:24:05.567Z,22.34
2023-06-22T23:26:33.895Z,22.27
2023-06-22T23:29:01.942Z,22.24
2023-06-22T23:31:30.039Z,22.19
2023-06-22T23:33:58.069Z,22.13
2023-06-22T23:36:26.331Z,22.08
2023-06-22T23:38:55.464Z,22.04
2023-06-22T23:41:26.522Z,21.98
2023-06-22T23:43:54.716Z,21.93
2023-06-22T23:46:22.870Z,21.89
2023-06-22T23:48:50.983Z,21.87
2023-06-22T23:51:19.005Z,21.83
2023-06-22T23:53:47.243Z,21.80
2023-06-22T23:56:15.709Z,21.76
2023-06-22T23:58:43.721Z,21.74
